Time;durP1;ratioP1;P1;durP2;ratioP2;P2;SDS_P1;SDS_P2;PMS_P1;PMS_P2;Temp;Humidity;BMP_temperature;BMP_pressure;BME280_temperature;BME280_humidity;BME280_pressure;Samples;Min_cycle;Max_cycle;Signal;HPM_P1;HPM_P2
2022/10/14 00:02:11;;;;;;;;;;;;;;;12.03;100.00;101482.63;5038390;28;19975;-41
2022/10/14 00:04:36;;;;;;;;;;;;;;;12.04;100.00;101479.81;5026414;28;20577;-40
2022/10/14 00:07:01;;;;;;;;;;;;;;;12.04;100.00;101485.16;5028515;28;19974;-45
2022/10/14 00:09:26;;;;;;;;;;;;;;;12.06;100.00;101480.47;5038594;28;19921;-43
2022/10/14 00:11:51;;;;;;;;;;;;;;;12.06;100.00;101483.16;5036631;28;19958;-42
2022/10/14 00:14:19;;;;;;;;;;;;;;;12.07;100.00;101484.03;5039785;28;20011;-42
2022/10/14 00:16:45;;;;;;;;;;;;;;;12.07;100.00;101486.69;5039041;28;19920;-43
2022/10/14 00:19:11;;;;;;;;;;;;;;;12.07;100.00;101490.22;5039198;28;19921;-42
2022/10/14 00:21:37;;;;;;;;;;;;;;;12.06;100.00;101491.19;5039725;28;19944;-42
2022/10/14 00:24:02;;;;;;;;;;;;;;;12.08;100.00;101485.69;5040526;28;19924;-45
2022/10/14 00:26:29;;;;;;;;;;;;;;;12.09;100.00;101492.75;5017822;28;20112;-45
2022/10/14 00:28:55;;;;;;;;;;;;;;;12.10;100.00;101495.25;5028156;28;19933;-43
2022/10/14 00:31:20;;;;;;;;;;;;;;;12.11;100.00;101486.22;5038627;28;20026;-43
2022/10/14 00:33:46;;;;;;;;;;;;;;;12.11;100.00;101480.84;5034047;28;20267;-41
2022/10/14 00:36:13;;;;;;;;;;;;;;;12.11;100.00;101480.84;5035677;28;19931;-42
2022/10/14 00:38:38;;;;;;;;;;;;;;;12.14;100.00;101477.03;5040024;28;19923;-40
2022/10/14 00:41:03;;;;;;;;;;;;;;;12.15;100.00;101468.00;5039620;28;19920;-42
2022/10/14 00:43:28;;;;;;;;;;;;;;;12.17;100.00;101467.84;5031086;28;20380;-45
2022/10/14 00:45:54;;;;;;;;;;;;;;;12.19;100.00;101468.56;5038108;28;19951;-43
2022/10/14 00:48:21;;;;;;;;;;;;;;;12.20;100.00;101465.69;5029482;28;19929;-43
2022/10/14 00:50:50;;;;;;;;;;;;;;;12.21;100.00;101459.34;5038559;28;19978;-42
2022/10/14 00:53:16;;;;;;;;;;;;;;;12.22;100.00;101454.81;5038961;28;20326;-43
2022/10/14 00:55:42;;;;;;;;;;;;;;;12.23;100.00;101457.34;5038753;28;19956;-45
2022/10/14 00:58:07;;;;;;;;;;;;;;;12.25;100.00;101457.19;5038791;28;20398;-42
2022/10/14 01:00:32;;;;;;;;;;;;;;;12.25;100.00;101444.66;5038397;28;20383;-42
2022/10/14 01:02:58;;;;;;;;;;;;;;;12.27;100.00;101445.34;5038912;28;20738;-43
2022/10/14 01:05:28;;;;;;;;;;;;;;;12.26;100.00;101448.19;5039113;28;19954;-41
2022/10/14 01:07:54;;;;;;;;;;;;;;;12.26;100.00;101442.81;5037933;28;20605;-43
2022/10/14 01:10:55;;;;;;;;;;;;;;;12.26;100.00;101438.28;5038148;28;19916;-43
2022/10/14 01:13:25;;;;;;;;;;;;;;;12.27;100.00;101439.13;4957938;28;20413;-43
2022/10/14 01:15:51;;;;;;;;;;;;;;;12.27;100.00;101431.94;5007246;28;20321;-42
2022/10/14 01:18:35;;;;;;;;;;;;;;;12.27;100.00;101433.78;5039397;28;19916;-44
2022/10/14 01:21:15;;;;;;;;;;;;;;;12.27;100.00;101428.41;5034948;28;20162;-41
2022/10/14 01:23:53;;;;;;;;;;;;;;;12.26;100.00;101422.22;5032826;28;19917;-43
2022/10/14 01:26:36;;;;;;;;;;;;;;;12.27;100.00;101409.66;5039041;28;20409;-43
2022/10/14 01:29:04;;;;;;;;;;;;;;;12.28;100.00;101406.84;5037804;28;19982;-43
2022/10/14 01:31:32;;;;;;;;;;;;;;;12.27;100.00;101391.78;5037480;28;19925;-42
2022/10/14 01:34:00;;;;;;;;;;;;;;;12.27;100.00;101386.41;5035349;28;19974;-42
2022/10/14 01:36:30;;;;;;;;;;;;;;;12.26;100.00;101381.22;5028909;28;19946;-45
2022/10/14 01:38:59;;;;;;;;;;;;;;;12.25;100.00;101379.53;5037840;28;20329;-42
2022/10/14 01:41:27;;;;;;;;;;;;;;;12.24;100.00;101385.91;5038991;28;19966;-44
2022/10/14 01:43:54;;;;;;;;;;;;;;;12.22;100.00;101382.53;5037751;28;20320;-47
2022/10/14 01:46:21;;;;;;;;;;;;;;;12.21;100.00;101381.69;5031958;28;19917;-39
2022/10/14 01:48:58;;;;;;;;;;;;;;;12.20;100.00;101380.00;5032937;28;19924;-43
2022/10/14 01:51:29;;;;;;;;;;;;;;;12.20;100.00;101377.31;5036804;28;19920;-42
2022/10/14 01:54:01;;;;;;;;;;;;;;;12.20;100.00;101380.00;5038080;28;19913;-43
2022/10/14 01:56:28;;;;;;;;;;;;;;;12.20;100.00;101381.84;5037928;28;19921;-44
2022/10/14 01:58:54;;;;;;;;;;;;;;;12.20;100.00;101381.84;5037549;28;20268;-42
2022/10/14 02:01:19;;;;;;;;;;;;;;;12.21;100.00;101388.91;5037156;28;20029;-44
2022/10/14 02:03:46;;;;;;;;;;;;;;;12.21;100.00;101378.19;5038296;28;19939;-43
2022/10/14 02:06:30;;;;;;;;;;;;;;;12.19;100.00;101369.47;5036274;28;20086;-43
2022/10/14 02:08:55;;;;;;;;;;;;;;;12.21;100.00;101373.66;5022331;28;20015;-41
2022/10/14 02:11:22;;;;;;;;;;;;;;;12.21;100.00;101373.66;5032793;28;20043;-43
2022/10/14 02:14:00;;;;;;;;;;;;;;;12.20;100.00;101371.97;5032462;28;20345;-43
2022/10/14 02:16:40;;;;;;;;;;;;;;;12.19;100.00;101378.34;5035699;28;19971;-45
2022/10/14 02:19:14;;;;;;;;;;;;;;;12.19;100.00;101375.66;5038628;28;19923;-45
2022/10/14 02:21:45;;;;;;;;;;;;;;;12.19;100.00;101370.31;5036489;28;20287;-42
2022/10/14 02:24:21;;;;;;;;;;;;;;;12.19;100.00;101369.47;5037695;28;19958;-42
2022/10/14 02:26:48;;;;;;;;;;;;;;;12.18;100.00;101373.97;5020720;28;19917;-43
2022/10/14 02:29:14;;;;;;;;;;;;;;;12.18;100.00;101368.63;5036590;28;20260;-41
2022/10/14 02:31:41;;;;;;;;;;;;;;;12.19;100.00;101367.63;5036526;28;20009;-43
2022/10/14 02:34:10;;;;;;;;;;;;;;;12.18;100.00;101368.63;5038648;28;19913;-43
2022/10/14 02:36:35;;;;;;;;;;;;;;;12.18;100.00;101368.63;5036535;28;19917;-43
2022/10/14 02:39:01;;;;;;;;;;;;;;;12.17;100.00;101369.63;5037456;28;20368;-43
2022/10/14 02:41:29;;;;;;;;;;;;;;;12.17;100.00;101368.78;5041277;28;19925;-44
2022/10/14 02:43:55;;;;;;;;;;;;;;;12.18;100.00;101367.78;5029549;28;20387;-43
2022/10/14 02:46:20;;;;;;;;;;;;;;;12.19;100.00;101366.78;5040527;28;19927;-43
2022/10/14 02:48:46;;;;;;;;;;;;;;;12.19;100.00;101364.13;5040953;28;20180;-43
2022/10/14 02:51:11;;;;;;;;;;;;;;;12.20;100.00;101358.56;5040919;28;19920;-42
2022/10/14 02:53:36;;;;;;;;;;;;;;;12.21;100.00;101349.56;5041892;28;20396;-45
2022/10/14 02:56:01;;;;;;;;;;;;;;;12.24;100.00;101345.72;5042179;28;20286;-44
2022/10/14 02:58:26;;;;;;;;;;;;;;;12.26;100.00;101357.13;5040771;28;20546;-44
2022/10/14 03:00:52;;;;;;;;;;;;;;;12.27;100.00;101350.75;5040057;28;19982;-44
2022/10/14 03:03:17;;;;;;;;;;;;;;;12.28;100.00;101341.72;5039021;28;19927;-42
2022/10/14 03:05:42;;;;;;;;;;;;;;;12.28;100.00;101339.88;5036231;28;19917;-42
2022/10/14 03:08:07;;;;;;;;;;;;;;;12.28;100.00;101337.19;5000453;28;19932;-43
2022/10/14 03:10:32;;;;;;;;;;;;;;;12.29;100.00;101338.06;4997078;28;19929;-42
2022/10/14 03:12:58;;;;;;;;;;;;;;;12.29;100.00;101333.53;4994775;28;20338;-44
2022/10/14 03:15:23;;;;;;;;;;;;;;;12.29;100.00;101333.53;4993231;28;19921;-42
2022/10/14 03:17:48;;;;;;;;;;;;;;;12.30;100.00;101329.00;5000307;28;19925;-42
2022/10/14 03:20:14;;;;;;;;;;;;;;;12.30;100.00;101329.88;5001167;28;20085;-43
2022/10/14 03:22:39;;;;;;;;;;;;;;;12.30;100.00;101318.28;4997484;28;19928;-43
2022/10/14 03:25:04;;;;;;;;;;;;;;;12.30;100.00;101320.97;5002116;28;20024;-42
2022/10/14 03:27:29;;;;;;;;;;;;;;;12.30;100.00;101315.63;5001693;28;19980;-42
2022/10/14 03:29:55;;;;;;;;;;;;;;;12.30;100.00;101319.16;4987435;28;20325;-45
2022/10/14 03:32:20;;;;;;;;;;;;;;;12.31;100.00;101322.66;4989307;28;19928;-42
2022/10/14 03:34:45;;;;;;;;;;;;;;;12.29;100.00;101317.47;4997925;28;20020;-45
2022/10/14 03:37:10;;;;;;;;;;;;;;;12.28;100.00;101314.94;4999721;28;19964;-44
2022/10/14 03:39:35;;;;;;;;;;;;;;;12.28;100.00;101312.25;5000602;28;20356;-44
2022/10/14 03:42:01;;;;;;;;;;;;;;;12.28;100.00;101313.09;5000156;28;20022;-54
2022/10/14 03:44:26;;;;;;;;;;;;;;;12.28;100.00;101307.72;4999847;28;19921;-48
2022/10/14 03:46:51;;;;;;;;;;;;;;;12.29;100.00;101306.75;4999806;28;19921;-44
2022/10/14 03:49:16;;;;;;;;;;;;;;;12.29;100.00;101303.25;4997929;28;19921;-43
2022/10/14 03:51:42;;;;;;;;;;;;;;;12.29;100.00;101305.91;4995415;28;20265;-46
2022/10/14 03:54:07;;;;;;;;;;;;;;;12.30;100.00;101299.53;4999932;28;19921;-45
2022/10/14 03:56:32;;;;;;;;;;;;;;;12.29;100.00;101300.56;5001241;28;19924;-42
2022/10/14 03:58:57;;;;;;;;;;;;;;;12.30;100.00;101296.88;4997189;28;20252;-44
2022/10/14 04:01:22;;;;;;;;;;;;;;;12.29;100.00;101293.34;4999051;28;19918;-42
2022/10/14 04:03:49;;;;;;;;;;;;;;;12.30;100.00;101281.66;4999543;28;20322;-43
2022/10/14 04:06:15;;;;;;;;;;;;;;;12.31;100.00;101283.31;5008808;28;19921;-42
2022/10/14 04:08:40;;;;;;;;;;;;;;;12.30;100.00;101273.63;5039983;28;19966;-46
2022/10/14 04:11:05;;;;;;;;;;;;;;;12.31;100.00;101282.50;5037323;28;20411;-45
2022/10/14 04:13:31;;;;;;;;;;;;;;;12.30;100.00;101276.31;5038536;28;19967;-42
2022/10/14 04:15:56;;;;;;;;;;;;;;;12.30;100.00;101278.97;5039242;28;20040;-45
2022/10/14 04:18:21;;;;;;;;;;;;;;;12.31;100.00;101275.28;5040401;28;19943;-42
2022/10/14 04:20:46;;;;;;;;;;;;;;;12.32;100.00;101276.09;5037868;28;19917;-43
2022/10/14 04:23:11;;;;;;;;;;;;;;;12.31;100.00;101269.94;5039903;28;19917;-44
2022/10/14 04:25:38;;;;;;;;;;;;;;;12.32;100.00;101265.41;5038923;28;19920;-44
2022/10/14 04:28:03;;;;;;;;;;;;;;;12.34;100.00;101262.56;5037474;28;19931;-46
2022/10/14 04:30:28;;;;;;;;;;;;;;;12.32;100.00;101260.91;5039113;28;19916;-44
2022/10/14 04:32:54;;;;;;;;;;;;;;;12.34;100.00;101259.88;5039865;28;19923;-41
2022/10/14 04:35:19;;;;;;;;;;;;;;;12.31;100.00;101267.25;5038796;28;19921;-42
2022/10/14 04:37:44;;;;;;;;;;;;;;;12.32;100.00;101260.91;5039930;28;19912;-41
2022/10/14 04:40:09;;;;;;;;;;;;;;;12.34;100.00;101263.41;5039526;28;19920;-44
2022/10/14 04:42:34;;;;;;;;;;;;;;;12.34;100.00;101258.06;5036188;28;20415;-47
2022/10/14 04:45:00;;;;;;;;;;;;;;;12.33;100.00;101256.38;5035682;28;20325;-43
2022/10/14 04:47:26;;;;;;;;;;;;;;;12.34;100.00;101251.84;5038873;28;19921;-41
2022/10/14 04:49:51;;;;;;;;;;;;;;;12.33;100.00;101248.34;5039758;28;20331;-42
2022/10/14 04:52:16;;;;;;;;;;;;;;;12.34;100.00;101249.16;5038549;28;19916;-42
2022/10/14 04:54:41;;;;;;;;;;;;;;;12.34;100.00;101243.81;5036251;28;20057;-42
2022/10/14 04:57:06;;;;;;;;;;;;;;;12.34;100.00;101242.00;5039470;28;20414;-48
2022/10/14 04:59:33;;;;;;;;;;;;;;;12.35;100.00;101246.31;5037826;28;19928;-47
2022/10/14 05:01:58;;;;;;;;;;;;;;;12.36;100.00;101236.47;5038952;28;20433;-43
2022/10/14 05:04:23;;;;;;;;;;;;;;;12.37;100.00;101238.13;5039001;28;19913;-43
2022/10/14 05:06:48;;;;;;;;;;;;;;;12.36;100.00;101231.94;5038062;28;19920;-46
2022/10/14 05:09:14;;;;;;;;;;;;;;;12.36;100.00;101231.94;5038826;28;20003;-43
2022/10/14 05:11:39;;;;;;;;;;;;;;;12.39;100.00;101228.09;5037329;28;19974;-42
2022/10/14 05:14:04;;;;;;;;;;;;;;;12.38;100.00;101221.91;5042011;28;19928;-43
2022/10/14 05:16:30;;;;;;;;;;;;;;;12.39;100.00;101231.63;5038337;28;20320;-42
2022/10/14 05:18:56;;;;;;;;;;;;;;;12.38;100.00;101221.06;5038193;28;19962;-43
2022/10/14 05:21:21;;;;;;;;;;;;;;;12.38;100.00;101221.06;5036352;28;19919;-44
2022/10/14 05:23:46;;;;;;;;;;;;;;;12.37;100.00;101222.91;5038892;28;20212;-43
2022/10/14 05:26:11;;;;;;;;;;;;;;;12.38;100.00;101213.03;5036297;28;20012;-44
2022/10/14 05:28:39;;;;;;;;;;;;;;;12.38;100.00;101207.69;5034487;28;19917;-45
2022/10/14 05:31:05;;;;;;;;;;;;;;;12.38;100.00;101205.00;5033680;28;20421;-43
2022/10/14 05:33:31;;;;;;;;;;;;;;;12.37;100.00;101195.28;5037592;28;19920;-41
2022/10/14 05:35:56;;;;;;;;;;;;;;;12.37;100.00;101195.28;5037455;28;19920;-41
2022/10/14 05:38:21;;;;;;;;;;;;;;;12.37;100.00;101195.28;5023970;28;19960;-47
2022/10/14 05:40:53;;;;;;;;;;;;;;;12.39;100.00;101194.13;5033897;28;20334;-42
2022/10/14 05:43:19;;;;;;;;;;;;;;;12.38;100.00;101181.72;5036744;28;20376;-43
2022/10/14 05:45:44;;;;;;;;;;;;;;;12.39;100.00;101178.06;5032048;28;19924;-44
2022/10/14 05:48:09;;;;;;;;;;;;;;;12.40;100.00;101182.38;5037060;28;19925;-41
2022/10/14 05:50:34;;;;;;;;;;;;;;;12.40;100.00;101182.38;5035320;28;19937;-46
2022/10/14 05:53:00;;;;;;;;;;;;;;;12.39;100.00;101183.41;5038728;28;20016;-47
2022/10/14 05:55:25;;;;;;;;;;;;;;;12.40;100.00;101182.38;5034540;28;20011;-45
2022/10/14 05:57:54;;;;;;;;;;;;;;;12.41;100.00;101183.25;5020295;28;19939;-43
2022/10/14 06:00:19;;;;;;;;;;;;;;;12.42;100.00;101176.88;5034901;28;20015;-42
2022/10/14 06:02:45;;;;;;;;;;;;;;;12.45;100.00;101171.19;5036825;28;20016;-42
2022/10/14 06:05:10;;;;;;;;;;;;;;;12.45;100.00;101171.19;5025798;28;19927;-43
2022/10/14 06:07:35;;;;;;;;;;;;;;;12.47;100.00;101182.56;5029247;28;19932;-42
2022/10/14 06:10:01;;;;;;;;;;;;;;;12.46;100.00;101179.06;5036357;28;19917;-45
2022/10/14 06:12:26;;;;;;;;;;;;;;;12.46;100.00;101167.53;5035598;28;20477;-41
2022/10/14 06:14:51;;;;;;;;;;;;;;;12.46;100.00;101171.03;5029450;28;19951;-43
2022/10/14 06:17:16;;;;;;;;;;;;;;;12.46;100.00;101165.66;5031778;28;19913;-43
2022/10/14 06:19:41;;;;;;;;;;;;;;;12.49;100.00;101169.84;5030407;28;19923;-44
2022/10/14 06:22:07;;;;;;;;;;;;;;;12.49;100.00;101165.34;5035339;28;19913;-46
2022/10/14 06:24:32;;;;;;;;;;;;;;;12.50;100.00;101163.50;5026314;28;19962;-45
2022/10/14 06:26:57;;;;;;;;;;;;;;;12.51;100.00;101165.19;5029637;28;19916;-42
2022/10/14 06:29:25;;;;;;;;;;;;;;;12.54;100.00;101164.00;5024493;28;19925;-42
2022/10/14 06:31:50;;;;;;;;;;;;;;;12.55;100.00;101163.84;5026732;28;19983;-42
2022/10/14 06:34:15;;;;;;;;;;;;;;;12.56;100.00;101152.13;5036628;28;20016;-44
2022/10/14 06:36:40;;;;;;;;;;;;;;;12.59;100.00;101156.28;5032902;28;20237;-41
2022/10/14 06:39:05;;;;;;;;;;;;;;;12.59;100.00;101154.47;5037589;28;20364;-45
2022/10/14 06:41:31;;;;;;;;;;;;;;;12.61;100.00;101159.63;5036754;28;20386;-43
2022/10/14 06:43:56;;;;;;;;;;;;;;;12.62;100.00;101156.78;5034705;28;20036;-45
2022/10/14 06:46:24;;;;;;;;;;;;;;;12.63;100.00;101153.13;5036678;28;19936;-44
2022/10/14 06:48:49;;;;;;;;;;;;;;;12.64;100.00;101149.44;5036277;28;19925;-43
2022/10/14 06:51:14;;;;;;;;;;;;;;;12.66;100.00;101151.94;5029204;28;19917;-42
2022/10/14 06:53:39;;;;;;;;;;;;;;;12.67;100.00;101148.25;5034677;28;20213;-45
2022/10/14 06:56:05;;;;;;;;;;;;;;;12.69;100.00;101146.25;5040187;28;20205;-45
2022/10/14 06:58:31;;;;;;;;;;;;;;;12.71;100.00;101143.41;5042990;28;19916;-41
2022/10/14 07:01:00;;;;;;;;;;;;;;;12.72;100.00;101142.41;5033693;28;20465;-45
2022/10/14 07:03:25;;;;;;;;;;;;;;;12.74;100.00;101135.03;5037917;28;19923;-41
2022/10/14 07:05:50;;;;;;;;;;;;;;;12.76;100.00;101133.03;5000640;28;19913;-40
2022/10/14 07:08:16;;;;;;;;;;;;;;;12.76;100.00;101133.03;5034312;28;19964;-44
2022/10/14 07:10:41;;;;;;;;;;;;;;;12.79;100.00;101136.19;5031486;28;19923;-43
2022/10/14 07:13:06;;;;;;;;;;;;;;;12.79;100.00;101136.19;5035486;28;19923;-45
2022/10/14 07:15:31;;;;;;;;;;;;;;;12.80;100.00;101137.06;5033119;28;19917;-43
2022/10/14 07:17:56;;;;;;;;;;;;;;;12.80;100.00;101139.72;5034606;28;19967;-42
2022/10/14 07:20:22;;;;;;;;;;;;;;;12.82;100.00;101135.03;5032969;28;19912;-42
2022/10/14 07:22:47;;;;;;;;;;;;;;;12.84;100.00;101144.56;5032675;28;19919;-42
2022/10/14 07:25:12;;;;;;;;;;;;;;;12.85;100.00;101142.75;5014357;28;20016;-41
2022/10/14 07:27:37;;;;;;;;;;;;;;;12.88;100.00;101139.69;5034304;28;20391;-44
2022/10/14 07:30:04;;;;;;;;;;;;;;;12.89;100.00;101149.44;5031948;28;19949;-46
2022/10/14 07:32:29;;;;;;;;;;;;;;;12.91;100.00;101151.94;5036030;28;19920;-47
2022/10/14 07:34:54;;;;;;;;;;;;;;;12.91;100.00;101150.09;5032591;28;19917;-46
2022/10/14 07:37:19;;;;;;;;;;;;;;;12.92;100.00;101151.78;5028357;28;21455;-44
2022/10/14 07:39:45;;;;;;;;;;;;;;;12.93;100.00;101147.25;5037415;28;19920;-44
2022/10/14 07:42:10;;;;;;;;;;;;;;;12.95;100.00;101146.09;5036125;28;20235;-41
2022/10/14 07:44:38;;;;;;;;;;;;;;;12.98;100.00;101147.56;5039934;28;20269;-47
2022/10/14 07:47:04;;;;;;;;;;;;;;;12.98;100.00;101148.44;5038867;28;19995;-47
2022/10/14 07:49:29;;;;;;;;;;;;;;;13.01;100.00;101147.25;5039031;28;19916;-43
2022/10/14 07:51:55;;;;;;;;;;;;;;;13.04;100.00;101142.38;5039279;28;19913;-44
2022/10/14 07:54:21;;;;;;;;;;;;;;;13.07;100.00;101135.84;5039622;28;20368;-44
2022/10/14 07:56:49;;;;;;;;;;;;;;;13.11;100.00;101137.16;5038587;28;19921;-46
2022/10/14 07:59:15;;;;;;;;;;;;;;;13.15;100.00;101133.16;5039213;28;20028;-44
2022/10/14 08:01:41;;;;;;;;;;;;;;;13.18;100.00;101130.09;5034817;28;19912;-46
2022/10/14 08:04:07;;;;;;;;;;;;;;;13.21;100.00;101132.44;5030497;28;19924;-44
2022/10/14 08:06:32;;;;;;;;;;;;;;;13.22;100.00;101128.78;5036778;28;19920;-42
2022/10/14 08:08:57;;;;;;;;;;;;;;;13.25;100.00;101127.56;5036394;28;20015;-45
2022/10/14 08:11:23;;;;;;;;;;;;;;;13.30;100.00;101127.06;5037262;28;19913;-44
2022/10/14 08:13:50;;;;;;;;;;;;;;;13.32;100.00;101125.06;5038827;28;19925;-41
2022/10/14 08:16:16;;;;;;;;;;;;;;;13.33;100.00;101129.44;5038353;28;19994;-47
2022/10/14 08:18:42;;;;;;;;;;;;;;;13.33;100.00;101121.41;5039824;28;19917;-42
2022/10/14 08:21:07;;;;;;;;;;;;;;;13.35;100.00;101122.06;5038689;28;20313;-48
2022/10/14 08:23:32;;;;;;;;;;;;;;;13.39;100.00;101123.38;5039483;28;19913;-44
2022/10/14 08:25:57;;;;;;;;;;;;;;;13.45;100.00;101125.38;5039421;28;19998;-46
2022/10/14 08:28:22;;;;;;;;;;;;;;;13.50;100.00;101117.63;5036555;28;20175;-43
2022/10/14 08:30:48;;;;;;;;;;;;;;;13.60;100.00;101106.69;5027862;28;19952;-44
2022/10/14 08:33:13;;;;;;;;;;;;;;;13.70;100.00;101117.22;5033757;28;19909;-44
2022/10/14 08:35:38;;;;;;;;;;;;;;;13.72;100.00;101113.34;5037793;28;19996;-43
2022/10/14 08:38:03;;;;;;;;;;;;;;;13.79;100.00;101121.53;5038659;28;19917;-43
2022/10/14 08:40:32;;;;;;;;;;;;;;;13.84;100.00;101129.06;5037932;28;19916;-46
2022/10/14 08:43:13;;;;;;;;;;;;;;;13.89;100.00;101127.53;5030785;28;19917;-46
2022/10/14 08:45:44;;;;;;;;;;;;;;;13.92;100.00;101118.31;5033570;28;19917;-45
2022/10/14 08:48:12;;;;;;;;;;;;;;;13.93;100.00;101111.91;5038547;28;20230;-43
2022/10/14 08:50:43;;;;;;;;;;;;;;;13.92;100.00;101119.13;5038348;28;20159;-42
2022/10/14 08:53:13;;;;;;;;;;;;;;;13.92;100.00;101121.81;5037523;28;19913;-46
2022/10/14 08:55:40;;;;;;;;;;;;;;;13.96;100.00;101119.59;5038580;28;20008;-45
2022/10/14 08:58:22;;;;;;;;;;;;;;;13.95;100.00;101109.88;5038141;28;20035;-43
2022/10/14 09:00:49;;;;;;;;;;;;;;;13.94;100.00;101119.78;5037910;28;20007;-45
2022/10/14 09:03:31;;;;;;;;;;;;;;;13.92;100.00;101119.13;5038949;28;20394;-43
2022/10/14 09:06:00;;;;;;;;;;;;;;;13.95;100.00;101121.47;5036461;28;19963;-43
2022/10/14 09:08:32;;;;;;;;;;;;;;;13.98;100.00;101118.44;5038120;28;20007;-45
2022/10/14 09:10:57;;;;;;;;;;;;;;;13.99;100.00;101113.88;5038331;28;20517;-45
2022/10/14 09:13:42;;;;;;;;;;;;;;;13.99;100.00;101111.19;5037078;28;19958;-44
2022/10/14 09:16:14;;;;;;;;;;;;;;;14.01;100.00;101114.53;5037766;28;20344;-42
2022/10/14 09:18:42;;;;;;;;;;;;;;;14.02;100.00;101105.47;5038934;28;19912;-43
2022/10/14 09:21:21;;;;;;;;;;;;;;;14.03;100.00;101104.44;5018569;28;20134;-43
2022/10/14 09:23:46;;;;;;;;;;;;;;;14.04;100.00;101108.00;5038711;28;19912;-45
2022/10/14 09:26:16;;;;;;;;;;;;;;;14.08;100.00;101102.06;5037260;28;19912;-45
2022/10/14 09:28:42;;;;;;;;;;;;;;;14.13;100.00;101094.31;5037878;28;20360;-46
2022/10/14 09:31:09;;;;;;;;;;;;;;;14.16;100.00;101095.81;5037271;28;20272;-45
2022/10/14 09:33:38;;;;;;;;;;;;;;;14.18;100.00;101096.47;5038363;28;20287;-43
2022/10/14 09:36:04;;;;;;;;;;;;;;;14.18;100.00;101091.09;5027226;28;19924;-43
2022/10/14 09:38:29;;;;;;;;;;;;;;;14.23;100.00;101098.63;5032451;28;20361;-47
2022/10/14 09:40:57;;;;;;;;;;;;;;;14.28;100.00;101089.00;5037241;28;20319;-45
2022/10/14 09:43:23;;;;;;;;;;;;;;;14.38;100.00;101086.09;5037142;28;19916;-42
2022/10/14 09:45:59;;;;;;;;;;;;;;;14.46;100.00;101085.16;5036957;28;20010;-43
2022/10/14 09:48:24;;;;;;;;;;;;;;;14.52;100.00;101087.13;5031050;28;19925;-42
2022/10/14 09:50:52;;;;;;;;;;;;;;;14.57;100.00;101090.13;5035781;28;19913;-45
2022/10/14 09:53:25;;;;;;;;;;;;;;;14.60;100.00;101089.78;5032100;28;20394;-46
2022/10/14 09:55:53;;;;;;;;;;;;;;;14.66;100.00;101085.53;5037668;28;20183;-44
2022/10/14 09:58:24;;;;;;;;;;;;;;;14.68;100.00;101081.66;5036413;28;19920;-43
2022/10/14 10:00:55;;;;;;;;;;;;;;;14.74;100.00;101082.78;5035153;28;19959;-44
2022/10/14 10:03:28;;;;;;;;;;;;;;;14.78;100.00;101077.84;5035888;28;19912;-45
2022/10/14 10:06:02;;;;;;;;;;;;;;;14.77;100.00;101082.41;5035058;28;20283;-46
2022/10/14 10:08:29;;;;;;;;;;;;;;;14.80;100.00;101068.59;5035037;28;20210;-42
2022/10/14 10:11:00;;;;;;;;;;;;;;;14.79;100.00;101072.31;5017295;28;20345;-47
2022/10/14 10:13:38;;;;;;;;;;;;;;;14.75;100.00;101079.06;5036909;28;19999;-47
2022/10/14 10:16:04;;;;;;;;;;;;;;;14.72;100.00;101069.50;5030689;28;19986;-45
2022/10/14 10:18:29;;;;;;;;;;;;;;;14.79;100.00;101068.78;5036959;28;19913;-44
2022/10/14 10:21:05;;;;;;;;;;;;;;;14.85;100.00;101073.41;5036171;28;20075;-43
2022/10/14 10:23:30;;;;;;;;;;;;;;;14.83;100.00;101070.91;5037491;28;20391;-46
2022/10/14 10:26:12;;;;;;;;;;;;;;;14.73;100.00;101059.56;5037029;28;19913;-44
2022/10/14 10:28:44;;;;;;;;;;;;;;;14.70;100.00;101066.19;5035263;28;19936;-43
2022/10/14 10:31:29;;;;;;;;;;;;;;;14.68;100.00;101061.97;5035099;28;20757;-47
2022/10/14 10:34:17;;;;;;;;;;;;;;;14.61;100.00;101061.88;5036564;28;20276;-45
2022/10/14 10:36:50;;;;;;;;;;;;;;;14.53;100.00;101057.41;5032086;28;19913;-46
2022/10/14 10:39:30;;;;;;;;;;;;;;;14.49;100.00;101052.56;5021866;28;19952;-44
2022/10/14 10:42:02;;;;;;;;;;;;;;;14.44;100.00;101050.41;5033438;28;19972;-44
2022/10/14 10:44:30;;;;;;;;;;;;;;;14.38;100.00;101050.31;5028936;28;20102;-42
2022/10/14 10:46:59;;;;;;;;;;;;;;;14.31;100.00;101048.34;5035706;28;19966;-42
2022/10/14 10:49:27;;;;;;;;;;;;;;;14.29;100.00;101053.06;5014798;28;20240;-45
2022/10/14 10:51:58;;;;;;;;;;;;;;;14.31;100.00;101047.53;5026359;28;20501;-44
2022/10/14 10:54:30;;;;;;;;;;;;;;;14.39;100.00;101051.97;5036875;28;19913;-45
2022/10/14 10:57:02;;;;;;;;;;;;;;;14.48;100.00;101045.53;5036677;28;19917;-46
2022/10/14 10:59:37;;;;;;;;;;;;;;;14.52;100.00;101039.59;5036612;28;20007;-42
2022/10/14 11:02:22;;;;;;;;;;;;;;;14.54;100.00;101034.88;5039406;28;19921;-44
2022/10/14 11:05:01;;;;;;;;;;;;;;;14.46;100.00;101036.78;5040016;28;20379;-44
2022/10/14 11:13:32;;;;;;;;;;;;;;;14.46;100.00;101029.59;5029430;28;20053;-47
2022/10/14 11:16:01;;;;;;;;;;;;;;;14.42;100.00;101022.88;5039677;28;19940;-47
2022/10/14 11:18:26;;;;;;;;;;;;;;;14.39;100.00;101025.09;5040280;28;19940;-42
2022/10/14 11:21:01;;;;;;;;;;;;;;;14.38;100.00;101021.59;5019251;28;19921;-41
2022/10/14 11:23:38;;;;;;;;;;;;;;;14.38;100.00;101016.22;5040528;28;19970;-44
2022/10/14 11:26:06;;;;;;;;;;;;;;;14.39;100.00;101017.88;5039838;28;20720;-44
2022/10/14 11:28:40;;;;;;;;;;;;;;;14.44;100.00;101022.72;5039143;28;19978;-46
2022/10/14 11:31:22;;;;;;;;;;;;;;;14.42;100.00;101020.19;5039522;28;19916;-44
2022/10/14 11:33:59;;;;;;;;;;;;;;;14.43;100.00;101013.81;5040276;28;19919;-44
2022/10/14 11:36:37;;;;;;;;;;;;;;;14.47;100.00;101012.44;5039439;28;19999;-43
2022/10/14 11:39:05;;;;;;;;;;;;;;;14.48;100.00;101005.22;5039188;28;20287;-45
2022/10/14 11:41:53;;;;;;;;;;;;;;;14.48;100.00;100997.16;5039223;28;19916;-43
2022/10/14 11:44:21;;;;;;;;;;;;;;;14.47;100.00;101001.69;5028376;28;20394;-43
2022/10/14 11:46:50;;;;;;;;;;;;;;;14.49;100.00;100998.81;5038993;28;19925;-42
2022/10/14 11:49:19;;;;;;;;;;;;;;;14.49;100.00;100977.31;5039152;28;20431;-46
2022/10/14 11:51:48;;;;;;;;;;;;;;;14.52;100.00;100977.78;5037715;28;19923;-46
2022/10/14 11:54:13;;;;;;;;;;;;;;;14.47;100.00;100977.50;5040006;28;19913;-44
2022/10/14 11:56:57;;;;;;;;;;;;;;;14.43;100.00;100968.13;5040050;28;19919;-44
2022/10/14 11:59:39;;;;;;;;;;;;;;;14.43;100.00;100973.50;5020364;28;20213;-43
2022/10/14 12:02:27;;;;;;;;;;;;;;;14.43;100.00;100972.69;5039134;28;20476;-43
2022/10/14 12:04:56;;;;;;;;;;;;;;;14.42;100.00;100969.16;5029165;28;20467;-43
2022/10/14 12:07:26;;;;;;;;;;;;;;;14.46;100.00;100965.09;5038323;28;19982;-44
2022/10/14 12:10:00;;;;;;;;;;;;;;;14.48;100.00;100962.22;5036465;28;20201;-46
2022/10/14 12:12:27;;;;;;;;;;;;;;;14.52;100.00;100961.66;5035423;28;19909;-45
2022/10/14 12:15:00;;;;;;;;;;;;;;;14.59;100.00;100955.56;5037764;28;20406;-42
2022/10/14 12:17:37;;;;;;;;;;;;;;;14.75;100.00;100947.34;5037003;28;19916;-44
2022/10/14 12:20:21;;;;;;;;;;;;;;;14.92;100.00;100946.09;5032358;28;20023;-41
2022/10/14 12:22:48;;;;;;;;;;;;;;;15.00;100.00;100947.03;5036199;28;19913;-46
2022/10/14 12:25:16;;;;;;;;;;;;;;;15.02;100.00;100942.28;5038826;28;19916;-46
2022/10/14 12:27:41;;;;;;;;;;;;;;;15.01;100.00;100935.25;5039045;28;19942;-45
2022/10/14 12:30:25;;;;;;;;;;;;;;;15.00;100.00;100933.56;5039151;28;20442;-41
2022/10/14 12:33:20;;;;;;;;;;;;;;;15.00;100.00;100929.03;5038782;28;20466;-42
2022/10/14 12:35:45;;;;;;;;;;;;;;;15.12;100.00;100929.38;5029091;28;19952;-41
2022/10/14 12:38:11;;;;;;;;;;;;;;;15.15;100.00;100920.91;5038708;28;19960;-43
2022/10/14 12:40:36;;;;;;;;;;;;;;;15.15;100.00;100918.22;5037146;28;20015;-42